Surabaya Perak, Indonesia

12:55 PM WIB on Oktober 26, 2014 (GMT +0700)
Juanda | Change Station
CLOSE
Current Station
Airport
Location: Juanda,
Elevation: 10 ft
Nearby Weather Stations

Elev 10 ft 7.38 °S, 112.79 °E | Updated 25 minutes ago

Partly Cloudy
Mendung Sebagian
90 °F
Feels Like 90 °F
N
13
Angin Variable Angin from Arah Timur

Siang Ini
High -- | Low -- °F
--% Chance of Precip.
Yesterday
High -- | Low -- °F
Precip. -- Inch
5:03 AM 5:22 PM
Waxing Crescent, 6% visible
Tekanan 29.83 Inch
Jarak Pandang 6.2 Mil
Awan Few 2000 ft
Ideks Panas 90 °F
Titik Embun 63 °F
Kelembaban 40%
Rainfall 0.00 Inch
Snow Depth Not available.
UV 11 out of 12
Pollen Not available.
Air Quality Not available.
Flu Activity Not available.
METAR WARR 260530Z 09011KT 060V130 9999 FEW020 32/17 Q1010

More Conditions Fewer Conditions

Tekanan 29.83 Inch
Jarak Pandang 6.2 Mil
Awan Few 2000 ft
Ideks Panas 90 °F
Titik Embun 63 °F
Kelembaban 40%
Rainfall 0.00 Inch
Snow Depth Not available.
UV 11 out of 12
Pollen Not available.
Air Quality Not available.
Flu Activity Not available.
METAR WARR 260530Z 09011KT 060V130 9999 FEW020 32/17 Q1010

More Conditions Fewer Conditions

10-Day Weather Forecast

Almanac

Astronomi

Oct. 26, 2014 Rise Set
Actual Time 5:03 AM WIB 5:22 PM WIB
Civil Twilight 4:41 AM WIB 5:44 PM WIB
Nautical Twilight 4:17 AM WIB 6:09 PM WIB
Astronomical Twilight 3:52 AM WIB 6:34 PM WIB
Moon 6:47 AM WIB 7:30 PM WIB
Length Of Visible Light 13h 02m
Lama Satu Hari
12h 19m
Tomorrow will be 0m 22s longer.
Waxing Crescent, 6% of the Moon is Illuminated
Siang Ini
Waxing Crescent
Oct 30
Triwulan Pertama
Nov 6
Bulan Purnama
Nov 14
Kuartil Terakhir
Nov 22
New

Yesterday's Extremes

Country Highs Country Lows

Community

WunderPhotos

Upload Photos

1,765,112 photos uploaded!

Nearby

Snow Depth

Not available.

Earthquake Activity

City Distance Mag. Time & Date
No recent earthquake activity has been reported nearby.
Minimum magnitude displayed is 2.5.

Coastal Water Temperatures

Lokasi Temperatur
No Stations Reporting

Nearby Weather Stations